createdAt,value
2022-09-28T00:00:33.470Z,0.63
2022-09-28T00:05:37.907Z,0.60
2022-09-28T00:10:43.317Z,0.67
2022-09-28T00:15:46.410Z,0.70
2022-09-28T00:21:00.186Z,0.70
2022-09-28T00:26:04.295Z,0.87
2022-09-28T00:31:07.429Z,0.90
2022-09-28T00:36:11.971Z,0.90
2022-09-28T00:41:15.559Z,0.80
2022-09-28T00:46:21.072Z,0.70
2022-09-28T00:51:27.824Z,0.90
2022-09-28T00:56:34.447Z,0.80
2022-09-28T01:01:38.956Z,0.87
2022-09-28T01:06:46.469Z,0.80
2022-09-28T01:11:49.528Z,0.90
2022-09-28T01:17:01.478Z,0.90
2022-09-28T01:22:21.558Z,0.80
2022-09-28T01:27:30.868Z,0.90
2022-09-28T01:32:45.569Z,0.80
2022-09-28T01:37:54.002Z,0.90
2022-09-28T01:43:04.149Z,1.10
2022-09-28T01:48:09.637Z,0.90
2022-09-28T01:53:18.658Z,0.80
2022-09-28T01:58:30.066Z,0.90
2022-09-28T02:03:37.911Z,0.90
2022-09-28T02:08:46.994Z,1.20
2022-09-28T02:13:54.667Z,1.00
2022-09-28T02:18:58.454Z,0.90
2022-09-28T02:24:05.549Z,1.00
2022-09-28T02:29:10.105Z,1.33
2022-09-28T02:34:13.242Z,1.20
2022-09-28T02:39:18.065Z,1.10
2022-09-28T02:44:39.428Z,1.00
2022-09-28T02:49:48.100Z,1.30
2022-09-28T02:55:18.451Z,1.17
2022-09-28T03:00:25.176Z,1.00
2022-09-28T03:05:38.313Z,1.03
2022-09-28T03:10:47.780Z,1.20
2022-09-28T03:15:52.232Z,1.20
2022-09-28T03:20:55.320Z,0.97
2022-09-28T03:25:58.425Z,0.97
2022-09-28T03:31:03.012Z,1.07
2022-09-28T03:36:08.674Z,1.10
2022-09-28T03:41:11.986Z,1.00
2022-09-28T03:46:16.806Z,0.80
2022-09-28T03:51:19.998Z,0.90
2022-09-28T03:56:23.097Z,0.90
2022-09-28T04:01:27.580Z,0.90
2022-09-28T04:06:30.767Z,1.00
2022-09-28T04:11:47.611Z,1.00
2022-09-28T04:16:58.524Z,1.00
2022-09-28T04:22:02.351Z,0.80
2022-09-28T04:27:22.770Z,0.77
2022-09-28T04:32:27.337Z,0.90
2022-09-28T04:37:31.283Z,0.80
2022-09-28T04:42:34.482Z,1.07
2022-09-28T04:47:38.945Z,0.97
2022-09-28T04:52:42.104Z,1.00
2022-09-28T04:57:45.193Z,0.80
2022-09-28T05:02:49.634Z,1.10
2022-09-28T05:07:52.689Z,1.30
2022-09-28T05:12:55.737Z,1.20
2022-09-28T05:18:00.236Z,1.20
2022-09-28T05:23:03.342Z,1.20
2022-09-28T05:28:06.914Z,1.20
2022-09-28T05:33:11.339Z,1.00
2022-09-28T05:38:14.489Z,1.20
2022-09-28T05:43:17.841Z,1.00
2022-09-28T05:48:22.308Z,0.90
2022-09-28T05:53:26.183Z,1.10
2022-09-28T05:58:29.389Z,1.50
2022-09-28T06:03:33.872Z,1.33
2022-09-28T06:08:37.046Z,1.00
2022-09-28T06:13:40.418Z,0.83
2022-09-28T06:18:44.891Z,1.37
2022-09-28T06:23:49.384Z,0.90
2022-09-28T06:28:52.716Z,1.00
2022-09-28T06:33:57.471Z,1.00
2022-09-28T06:39:00.647Z,0.90
2022-09-28T06:44:06.240Z,1.00
2022-09-28T06:49:11.294Z,1.00
2022-09-28T06:54:14.813Z,0.90
2022-09-28T06:59:18.475Z,0.70
2022-09-28T07:04:22.979Z,0.70
2022-09-28T07:09:32.882Z,0.80
2022-09-28T07:14:47.494Z,0.80
2022-09-28T07:19:53.297Z,0.80
2022-09-28T07:24:57.636Z,0.83
2022-09-28T07:30:00.819Z,0.83
2022-09-28T07:35:08.044Z,1.30
2022-09-28T07:40:29.470Z,1.73
2022-09-28T07:45:36.641Z,1.40
2022-09-28T07:50:41.413Z,1.23
2022-09-28T07:55:44.564Z,0.90
2022-09-28T08:00:48.679Z,0.60
2022-09-28T08:05:53.294Z,0.50
2022-09-28T08:16:08.355Z,0.50
2022-09-28T08:21:30.431Z,0.50
2022-09-28T08:26:33.692Z,0.50
2022-09-28T08:31:37.013Z,0.60
2022-09-28T08:36:41.440Z,0.60
2022-09-28T08:41:50.604Z,0.50
2022-09-28T08:46:59.728Z,0.77
2022-09-28T08:52:10.828Z,0.57
2022-09-28T08:57:17.407Z,0.60
2022-09-28T09:02:25.517Z,0.60
2022-09-28T09:07:58.854Z,1.20
2022-09-28T09:13:12.463Z,0.97
2022-09-28T09:18:29.146Z,1.40
2022-09-28T09:23:38.478Z,0.90
2022-09-28T09:29:03.220Z,0.70
2022-09-28T09:34:23.865Z,0.87
2022-09-28T09:39:42.112Z,0.83
2022-09-28T09:45:05.632Z,0.90
2022-09-28T09:50:16.248Z,0.90
2022-09-28T09:55:29.982Z,0.80
2022-09-28T10:00:34.904Z,0.90
2022-09-28T10:05:38.922Z,0.77
2022-09-28T10:10:51.378Z,0.70
2022-09-28T10:15:55.500Z,0.90
2022-09-28T10:20:58.697Z,0.77
2022-09-28T10:26:06.286Z,0.70
2022-09-28T10:31:35.294Z,0.90
2022-09-28T10:36:50.874Z,0.90
2022-09-28T10:41:56.061Z,1.00
2022-09-28T10:47:02.209Z,1.60
2022-09-28T10:52:08.610Z,1.00
2022-09-28T10:57:29.527Z,1.13
2022-09-28T11:02:36.223Z,1.07
2022-09-28T11:07:47.161Z,1.00
2022-09-28T11:12:52.760Z,1.20
2022-09-28T11:17:56.593Z,0.90
2022-09-28T11:23:01.363Z,1.00
2022-09-28T11:28:06.315Z,1.30
2022-09-28T11:33:15.026Z,1.67
2022-09-28T11:38:34.095Z,1.70
2022-09-28T11:43:56.164Z,2.40
2022-09-28T11:49:04.193Z,2.50
2022-09-28T11:54:15.530Z,1.20
2022-09-28T11:59:26.748Z,1.30
2022-09-28T12:04:36.997Z,0.90
2022-09-28T12:09:46.813Z,1.23
2022-09-28T12:14:57.565Z,1.00
2022-09-28T12:20:06.588Z,1.20
2022-09-28T12:25:15.723Z,1.20
2022-09-28T12:30:21.569Z,1.20
2022-09-28T12:35:37.105Z,1.30
2022-09-28T12:40:51.422Z,1.40
2022-09-28T12:46:22.864Z,1.10
2022-09-28T12:51:43.354Z,1.00
2022-09-28T12:56:56.893Z,1.10
2022-09-28T13:02:29.511Z,1.13
2022-09-28T13:07:45.178Z,0.90
2022-09-28T13:12:59.901Z,1.67
2022-09-28T13:18:16.880Z,9.40
2022-09-28T13:23:23.606Z,2.53
2022-09-28T13:28:28.764Z,1.63
2022-09-28T13:33:36.930Z,1.40
2022-09-28T13:38:50.897Z,1.03
2022-09-28T13:44:31.831Z,1.60
2022-09-28T13:49:46.634Z,1.20
2022-09-28T13:55:04.744Z,1.50
2022-09-28T14:00:18.688Z,1.37
2022-09-28T14:05:47.391Z,1.30
2022-09-28T14:10:52.187Z,1.10
2022-09-28T14:16:15.419Z,1.30
2022-09-28T14:22:04.180Z,1.27
2022-09-28T14:27:33.690Z,1.30
2022-09-28T14:32:38.327Z,1.40
2022-09-28T14:38:01.294Z,1.30
2022-09-28T14:43:24.759Z,1.80
2022-09-28T14:48:44.964Z,1.37
2022-09-28T14:53:51.695Z,1.30
2022-09-28T14:58:58.377Z,1.47
2022-09-28T15:04:05.620Z,1.80
2022-09-28T15:09:31.452Z,1.37
2022-09-28T15:14:42.309Z,1.90
2022-09-28T15:19:52.863Z,1.67
2022-09-28T15:25:02.456Z,2.13
2022-09-28T15:30:26.168Z,2.23
2022-09-28T15:35:30.121Z,2.03
2022-09-28T15:40:39.144Z,2.60
2022-09-28T15:45:44.156Z,3.90
2022-09-28T15:51:06.198Z,2.70
2022-09-28T15:56:11.845Z,2.97
2022-09-28T16:01:36.017Z,2.30
2022-09-28T16:06:41.554Z,2.00
2022-09-28T16:11:48.596Z,2.40
2022-09-28T16:16:53.267Z,2.23
2022-09-28T16:21:57.856Z,2.87
2022-09-28T16:27:06.076Z,3.90
2022-09-28T16:32:37.638Z,2.80
2022-09-28T16:37:42.626Z,3.50
2022-09-28T16:42:49.338Z,2.47
2022-09-28T16:47:53.547Z,2.30
2022-09-28T16:53:20.455Z,2.40
2022-09-28T16:58:25.181Z,2.97
2022-09-28T17:03:29.441Z,2.70
2022-09-28T17:08:32.987Z,2.60
2022-09-28T17:13:37.497Z,2.60
2022-09-28T17:18:40.769Z,2.87
2022-09-28T17:23:44.042Z,2.90
2022-09-28T17:28:48.824Z,2.50
2022-09-28T17:33:52.086Z,2.40
2022-09-28T17:38:55.165Z,2.47
2022-09-28T17:44:00.221Z,2.53
2022-09-28T17:49:06.340Z,2.63
2022-09-28T17:54:10.057Z,2.13
2022-09-28T17:59:17.372Z,2.27
2022-09-28T18:04:46.923Z,2.30
2022-09-28T18:09:43.784Z,2.47
2022-09-28T18:14:48.481Z,1.97
2022-09-28T18:19:51.592Z,2.60
2022-09-28T18:24:54.745Z,3.10
2022-09-28T18:29:59.299Z,3.73
2022-09-28T18:35:02.353Z,3.37
2022-09-28T18:40:06.086Z,3.67
2022-09-28T18:45:12.199Z,4.23
2022-09-28T18:50:15.493Z,2.90
2022-09-28T18:55:19.138Z,2.47
2022-09-28T19:00:23.891Z,2.40
2022-09-28T19:05:28.244Z,3.20
2022-09-28T19:10:31.345Z,3.17
2022-09-28T19:15:36.198Z,2.40
2022-09-28T19:20:39.380Z,2.30
2022-09-28T19:25:42.494Z,2.13
2022-09-28T19:30:46.991Z,1.93
2022-09-28T19:35:57.218Z,1.97
2022-09-28T19:41:01.163Z,1.73
2022-09-28T19:46:08.416Z,2.50
2022-09-28T19:51:11.919Z,2.10
2022-09-28T19:56:16.154Z,2.20
2022-09-28T20:01:21.127Z,1.80
2022-09-28T20:06:24.709Z,2.20
2022-09-28T20:11:29.989Z,1.87
2022-09-28T20:16:37.642Z,1.90
2022-09-28T20:21:40.765Z,1.70
2022-09-28T20:26:45.864Z,1.70
2022-09-28T20:31:51.329Z,2.10
2022-09-28T20:36:54.525Z,2.30
2022-09-28T20:41:57.704Z,2.30
2022-09-28T20:47:02.536Z,2.60
2022-09-28T20:52:05.741Z,2.40
2022-09-28T20:57:17.565Z,2.70
2022-09-28T21:02:22.417Z,2.30
2022-09-28T21:07:25.728Z,2.23
2022-09-28T21:12:28.786Z,2.30
2022-09-28T21:17:33.445Z,2.03
2022-09-28T21:22:36.506Z,2.33
2022-09-28T21:27:39.573Z,2.07
2022-09-28T21:32:43.984Z,2.03
2022-09-28T21:37:47.330Z,2.00
2022-09-28T21:42:50.419Z,2.33
2022-09-28T21:47:55.265Z,2.17
2022-09-28T21:52:59.097Z,2.10
2022-09-28T21:58:02.165Z,2.27
2022-09-28T22:03:06.839Z,2.67
2022-09-28T22:08:10.098Z,2.33
2022-09-28T22:13:13.228Z,2.17
2022-09-28T22:18:17.705Z,2.80
2022-09-28T22:23:22.938Z,2.50
2022-09-28T22:28:26.071Z,2.60
2022-09-28T22:33:30.568Z,2.30
2022-09-28T22:38:34.042Z,2.13
2022-09-28T22:43:37.148Z,2.13
2022-09-28T22:48:42.327Z,2.40
2022-09-28T22:53:45.683Z,2.10
2022-09-28T22:58:49.031Z,2.17
2022-09-28T23:03:55.216Z,1.87
2022-09-28T23:08:58.612Z,2.37
2022-09-28T23:14:01.768Z,2.20
2022-09-28T23:19:06.374Z,2.07
2022-09-28T23:24:11.982Z,2.23
2022-09-28T23:29:15.050Z,2.33
2022-09-28T23:34:19.667Z,2.23
2022-09-28T23:39:22.767Z,2.10
2022-09-28T23:44:26.555Z,1.87
2022-09-28T23:49:31.540Z,1.90
2022-09-28T23:54:34.776Z,1.80
2022-09-28T23:59:37.938Z,1.93
